Time;durP1;ratioP1;P1;durP2;ratioP2;P2;SDS_P1;SDS_P2;PMS_P1;PMS_P2;Temp;Humidity;BMP_temperature;BMP_pressure;BME280_temperature;BME280_humidity;BME280_pressure;Samples;Min_cycle;Max_cycle;Signal;HPM_P1;HPM_P2
2022/05/08 00:00:36;;;;;;;20.55;15.50;;;;;;;23.33;33.16;100136.38;5044414;28;20052;-58
2022/05/08 00:03:02;;;;;;;20.73;15.13;;;;;;;23.31;33.33;100136.75;5043796;28;20451;-59
2022/05/08 00:05:29;;;;;;;24.45;16.38;;;;;;;23.31;33.50;100127.56;5045621;28;20591;-59
2022/05/08 00:07:55;;;;;;;22.70;16.77;;;;;;;23.31;33.82;100130.34;5026910;28;20044;-59
2022/05/08 00:10:22;;;;;;;24.00;17.65;;;;;;;23.29;33.91;100133.50;5042335;28;20574;-59
2022/05/08 00:12:48;;;;;;;26.02;18.17;;;;;;;23.29;34.16;100129.91;5042241;28;20512;-59
2022/05/08 00:15:14;;;;;;;25.20;19.05;;;;;;;23.21;34.39;100123.28;5048033;28;20069;-58
2022/05/08 00:17:40;;;;;;;27.27;21.08;;;;;;;23.26;34.28;100137.00;5011970;28;20041;-64
2022/05/08 00:20:08;;;;;;;28.38;20.98;;;;;;;23.26;34.41;100131.44;5025796;28;20107;-66
2022/05/08 00:22:42;;;;;;;28.15;22.08;;;;;;;23.15;34.64;100119.91;5042695;28;20084;-64
2022/05/08 00:25:08;;;;;;;26.38;20.63;;;;;;;23.25;34.96;100128.97;5043854;28;20049;-65
2022/05/08 00:27:34;;;;;;;29.40;22.90;;;;;;;23.23;35.30;100132.09;5044086;28;20056;-65
2022/05/08 00:30:01;;;;;;;31.77;24.13;;;;;;;23.22;35.50;100131.28;5024939;28;20048;-64
2022/05/08 00:32:27;;;;;;;32.22;25.05;;;;;;;23.22;35.19;100138.84;5025155;28;20131;-65
2022/05/08 00:34:55;;;;;;;31.02;25.17;;;;;;;23.22;35.54;100136.03;5044626;28;20053;-65
2022/05/08 00:37:21;;;;;;;34.88;27.35;;;;;;;23.22;35.67;100138.84;5042798;28;20110;-64
2022/05/08 00:39:49;;;;;;;34.10;27.42;;;;;;;23.20;35.66;100127.22;5007934;28;20048;-64
2022/05/08 00:42:18;;;;;;;34.22;27.55;;;;;;;23.20;36.19;100139.19;5043903;28;20067;-65
2022/05/08 00:44:44;;;;;;;33.33;27.13;;;;;;;23.19;36.01;100131.19;5046213;28;20471;-66
2022/05/08 00:47:10;;;;;;;38.08;29.98;;;;;;;23.19;36.19;100125.59;5044866;28;20136;-58
2022/05/08 00:49:36;;;;;;;37.53;30.25;;;;;;;23.18;36.57;100129.56;5042187;28;20474;-60
2022/05/08 00:52:04;;;;;;;;;;;;;;;23.19;36.49;100125.59;5043641;28;20593;-58
2022/05/08 00:54:30;;;;;;;42.85;32.00;;;;;;;23.18;36.50;100121.19;5046811;28;20398;-60
2022/05/08 00:56:57;;;;;;;38.53;32.78;;;;;;;23.17;36.42;100117.56;5028002;28;20609;-57
2022/05/08 00:59:24;;;;;;;41.67;33.40;;;;;;;23.17;36.71;100114.00;5025752;28;20052;-59
2022/05/08 01:01:50;;;;;;;44.27;35.50;;;;;;;23.16;36.82;100120.75;5044677;28;20873;-59
2022/05/08 01:04:16;;;;;;;43.78;35.78;;;;;;;23.15;37.21;100105.16;5044332;28;20136;-58
2022/05/08 01:06:43;;;;;;;44.45;35.92;;;;;;;23.15;37.22;100107.97;5026467;28;20424;-63
2022/05/08 01:09:09;;;;;;;43.67;37.25;;;;;;;23.12;37.24;100089.16;5023542;28;20049;-64
2022/05/08 01:11:36;;;;;;;46.10;37.85;;;;;;;23.14;37.50;100097.97;5023210;28;20051;-64
2022/05/08 01:14:04;;;;;;;47.10;38.35;;;;;;;23.13;37.45;100091.56;5042609;28;20053;-64
2022/05/08 01:16:30;;;;;;;47.70;39.10;;;;;;;23.13;37.45;100093.56;5026444;28;20057;-64
2022/05/08 01:18:56;;;;;;;50.38;41.13;;;;;;;23.13;37.72;100094.34;5042939;28;20401;-63
2022/05/08 01:21:35;;;;;;;47.25;40.45;;;;;;;23.12;38.30;100087.16;5020836;28;20060;-65
2022/05/08 01:24:00;;;;;;;52.17;43.17;;;;;;;23.11;38.21;100090.31;5024173;28;20053;-64
2022/05/08 01:26:26;;;;;;;56.75;45.45;;;;;;;23.11;38.11;100074.38;5005283;28;20045;-65
2022/05/08 01:28:53;;;;;;;54.25;44.25;;;;;;;23.12;38.14;100080.78;5006956;28;20107;-65
2022/05/08 01:31:19;;;;;;;60.10;46.38;;;;;;;23.09;38.26;100074.72;5022005;28;20099;-64
2022/05/08 01:33:45;;;;;;;55.53;46.35;;;;;;;23.11;38.62;100068.00;5024254;28;20509;-65
2022/05/08 01:36:11;;;;;;;53.17;45.97;;;;;;;23.10;38.37;100069.97;5021409;28;20049;-64
2022/05/08 01:38:38;;;;;;;59.35;49.13;;;;;;;23.09;38.66;100073.94;5022355;28;20095;-64
2022/05/08 01:41:04;;;;;;;59.25;48.70;;;;;;;23.09;38.72;100060.78;5025387;28;20112;-64
2022/05/08 01:43:37;;;;;;;59.42;50.00;;;;;;;23.09;38.88;100066.38;5023207;28;20057;-64
2022/05/08 01:46:03;;;;;;;57.40;49.13;;;;;;;23.09;38.72;100065.56;5028026;28;20134;-64
2022/05/08 01:48:30;;;;;;;60.72;50.20;;;;;;;23.08;38.76;100069.53;5024451;28;20075;-63
2022/05/08 01:50:58;;;;;;;59.55;51.55;;;;;;;23.08;39.18;100073.09;5010139;28;20041;-65
2022/05/08 01:53:26;;;;;;;63.58;51.08;;;;;;;23.06;39.46;100058.72;5023925;28;20144;-64
2022/05/08 01:55:54;;;;;;;65.60;54.38;;;;;;;23.07;39.35;100070.69;5012020;28;20052;-63
2022/05/08 01:58:21;;;;;;;64.05;53.05;;;;;;;23.05;39.28;100061.88;5030484;28;20092;-65
2022/05/08 02:00:48;;;;;;;65.90;54.20;;;;;;;23.07;39.31;100048.38;5026072;28;20096;-64
2022/05/08 02:03:14;;;;;;;;;;;;;;;23.06;39.16;100055.94;5024846;28;20136;-64
2022/05/08 02:05:41;;;;;;;71.53;57.70;;;;;;;23.07;39.56;100057.53;5025494;28;20027;-64
2022/05/08 02:08:07;;;;;;;;;;;;;;;23.06;39.22;100061.50;5025759;28;20077;-64
2022/05/08 02:10:33;;;;;;;67.80;57.47;;;;;;;23.05;39.66;100073.81;5027411;28;20024;-64
2022/05/08 02:13:01;;;;;;;73.03;59.65;;;;;;;23.03;39.81;100058.63;5027308;28;20057;-65
2022/05/08 02:15:29;;;;;;;69.70;59.58;;;;;;;23.03;40.01;100070.56;5023596;28;20103;-65
2022/05/08 02:17:59;;;;;;;71.43;58.83;;;;;;;22.99;40.14;100060.47;5026173;28;20057;-58
2022/05/08 02:20:25;;;;;;;71.45;59.95;;;;;;;23.02;40.19;100068.97;5026432;28;20064;-58
2022/05/08 02:22:51;;;;;;;74.70;63.72;;;;;;;23.02;40.13;100056.97;5042392;28;20551;-56
2022/05/08 02:25:18;;;;;;;73.90;62.60;;;;;;;23.02;40.27;100066.16;5043845;28;20069;-60
2022/05/08 02:27:49;;;;;;;77.50;63.30;;;;;;;23.02;40.61;100070.91;5047387;28;20045;-59
2022/05/08 02:30:19;;;;;;;78.40;65.28;;;;;;;23.02;40.46;100060.59;5047458;28;20045;-59
2022/05/08 02:32:46;;;;;;;82.45;68.55;;;;;;;23.02;40.44;100057.81;5045922;28;20152;-60
2022/05/08 02:35:12;;;;;;;84.88;68.65;;;;;;;23.02;40.46;100055.03;5028875;28;20107;-60
2022/05/08 02:37:39;;;;;;;80.40;68.72;;;;;;;23.02;40.99;100055.03;5046860;28;20053;-64
2022/05/08 02:40:08;;;;;;;87.90;71.25;;;;;;;23.01;40.87;100058.97;5029322;28;20041;-65
2022/05/08 02:42:35;;;;;;;84.82;70.30;;;;;;;23.03;40.94;100061.41;5044154;28;20057;-63
2022/05/08 02:45:01;;;;;;;81.28;69.25;;;;;;;23.04;41.02;100057.47;5045553;28;20106;-65
2022/05/08 02:47:32;;;;;;;84.15;68.13;;;;;;;23.04;40.89;100054.69;5045004;28;20519;-64
2022/05/08 02:49:58;;;;;;;90.25;75.78;;;;;;;23.04;40.93;100060.25;5044357;28;20583;-63
2022/05/08 02:52:24;;;;;;;92.65;74.97;;;;;;;23.03;41.16;100047.47;5026658;28;20156;-64
2022/05/08 02:54:49;;;;;;;89.90;70.47;;;;;;;23.05;40.64;100042.34;5044453;28;20045;-63
2022/05/08 03:00:05;;;;;;;96.95;78.65;;;;;;;23.06;40.99;100053.13;5047372;28;20056;-64
2022/05/08 03:02:33;;;;;;;94.97;76.82;;;;;;;23.04;41.45;100061.03;5026757;28;20080;-65
2022/05/08 03:04:59;;;;;;;99.10;80.20;;;;;;;23.05;41.27;100059.88;5045064;28;20057;-64
2022/05/08 03:07:27;;;;;;;99.88;81.57;;;;;;;23.06;41.53;100063.50;5042787;28;20064;-63
2022/05/08 03:09:53;;;;;;;105.32;82.30;;;;;;;23.04;41.83;100061.03;5047110;28;20106;-65
2022/05/08 03:12:19;;;;;;;102.05;82.65;;;;;;;23.02;41.67;100055.03;5047022;28;20474;-65
2022/05/08 03:14:45;;;;;;;102.40;85.22;;;;;;;23.05;41.81;100059.09;5047115;28;20455;-64
2022/05/08 03:17:11;;;;;;;110.85;87.32;;;;;;;23.06;41.86;100063.50;5046815;28;20065;-65
2022/05/08 03:19:39;;;;;;;99.57;82.38;;;;;;;23.06;41.90;100069.06;5045548;28;20472;-64
2022/05/08 03:22:06;;;;;;;;;;;;;;;23.07;41.48;100070.69;5045793;28;20417;-64
2022/05/08 03:24:31;;;;;;;;;;;;;;;23.06;41.60;100060.72;5027421;28;19925;-61
2022/05/08 03:26:57;;;;;;;112.47;85.97;;;;;;;23.04;41.67;100061.03;5059142;28;19925;-61
2022/05/08 03:29:24;;;;;;;112.30;88.50;;;;;;;23.03;42.05;100061.41;5043847;28;20052;-59
2022/05/08 03:31:50;;;;;;;113.55;89.60;;;;;;;23.02;42.15;100062.56;5045316;28;20114;-59
2022/05/08 03:34:17;;;;;;;120.20;92.50;;;;;;;23.04;42.17;100061.03;5049629;28;20140;-59
2022/05/08 03:36:44;;;;;;;122.97;95.10;;;;;;;23.04;42.54;100047.09;5043080;28;20052;-60
2022/05/08 03:39:11;;;;;;;122.10;95.45;;;;;;;23.07;42.15;100053.97;5042105;28;20050;-64
2022/05/08 03:41:37;;;;;;;123.20;96.47;;;;;;;23.07;41.92;100065.13;5024762;28;20433;-64
2022/05/08 03:44:04;;;;;;;126.70;95.03;;;;;;;23.09;42.46;100071.94;5028480;28;20053;-63
2022/05/08 03:46:29;;;;;;;129.67;96.93;;;;;;;23.11;42.00;100059.66;5029138;28;20056;-64
2022/05/08 03:48:56;;;;;;;127.88;98.93;;;;;;;23.11;42.00;100076.38;5045639;28;20044;-64
2022/05/08 03:51:22;;;;;;;131.03;100.00;;;;;;;23.12;42.50;100070.44;5044337;28;20118;-65
2022/05/08 03:53:50;;;;;;;138.82;102.80;;;;;;;23.13;42.49;100063.69;5025381;28;20798;-64
2022/05/08 03:56:16;;;;;;;137.38;103.70;;;;;;;23.16;42.50;100062.19;5028329;28;20136;-64
2022/05/08 03:58:42;;;;;;;148.77;109.10;;;;;;;23.19;42.54;100061.47;5028000;28;20149;-64
2022/05/08 04:01:09;;;;;;;140.80;106.00;;;;;;;23.19;42.53;100053.91;5042277;28;20462;-65
2022/05/08 04:03:35;;;;;;;146.32;106.22;;;;;;;23.20;42.26;100055.53;5046485;28;20079;-65
2022/05/08 04:06:03;;;;;;;142.37;106.70;;;;;;;23.22;42.44;100052.38;5028697;28;20056;-65
2022/05/08 04:08:28;;;;;;;156.38;112.07;;;;;;;23.23;42.50;100052.03;5027440;28;20271;-65
2022/05/08 04:10:56;;;;;;;155.90;113.05;;;;;;;23.27;42.63;100054.13;5046069;28;20076;-64
2022/05/08 04:13:22;;;;;;;170.40;120.03;;;;;;;23.28;42.46;100050.19;5044157;28;20734;-64
2022/05/08 04:18:33;;;;;;;178.60;123.07;;;;;;;23.33;42.69;100052.72;5024149;28;20037;-64
2022/05/08 04:20:59;;;;;;;177.50;121.97;;;;;;;23.34;42.94;100057.94;5041819;28;20048;-64
2022/05/08 04:26:11;;;;;;;181.13;123.70;;;;;;;23.34;42.72;100038.41;5024493;28;20060;-64
2022/05/08 04:28:37;;;;;;;198.38;135.02;;;;;;;23.39;42.59;100054.09;5027136;28;20041;-65
2022/05/08 04:31:03;;;;;;;185.90;128.98;;;;;;;23.42;42.62;100042.22;5044980;28;20067;-64
2022/05/08 04:33:29;;;;;;;206.35;136.45;;;;;;;23.45;42.80;100043.50;5047391;28;20066;-60
2022/05/08 04:35:55;;;;;;;196.68;131.02;;;;;;;23.46;42.40;100051.47;5025841;28;20048;-60
2022/05/08 04:38:21;;;;;;;218.45;140.55;;;;;;;23.48;42.60;100051.94;5046275;28;20044;-60
2022/05/08 04:40:47;;;;;;;214.77;141.18;;;;;;;23.50;42.62;100043.22;5045417;28;20087;-60
2022/05/08 04:43:15;;;;;;;230.48;146.75;;;;;;;23.52;42.57;100057.63;5043109;28;20543;-59
2022/05/08 04:45:40;;;;;;;230.88;146.65;;;;;;;23.57;42.41;100045.41;5041493;28;20132;-61
2022/05/08 04:48:07;;;;;;;234.38;148.85;;;;;;;23.61;42.75;100037.91;5041157;28;20156;-60
2022/05/08 04:50:33;;;;;;;236.82;147.13;;;;;;;23.64;42.21;100037.19;5043412;28;20081;-60
2022/05/08 04:53:00;;;;;;;249.05;154.48;;;;;;;23.68;42.30;100028.94;5044573;28;20073;-60
2022/05/08 04:55:26;;;;;;;262.95;164.65;;;;;;;23.71;42.51;100039.38;5030179;28;20505;-59
2022/05/08 04:57:52;;;;;;;257.70;161.85;;;;;;;23.74;42.43;100036.69;5004939;28;20041;-64
2022/05/08 05:00:20;;;;;;;270.48;170.18;;;;;;;23.73;42.50;100032.28;5023411;28;20100;-65
2022/05/08 05:02:46;;;;;;;269.42;168.80;;;;;;;23.76;42.49;100023.16;5024042;28;20144;-63
2022/05/08 05:05:12;;;;;;;274.52;167.32;;;;;;;23.76;42.51;100016.78;5011318;28;20048;-64
2022/05/08 05:07:39;;;;;;;287.02;179.45;;;;;;;23.78;42.14;100023.63;5041738;28;20115;-64
2022/05/08 05:10:07;;;;;;;308.63;187.63;;;;;;;23.79;42.94;100022.44;5042233;28;20045;-64
2022/05/08 05:12:33;;;;;;;313.88;193.07;;;;;;;23.80;42.82;100020.47;5044876;28;20322;-65
2022/05/08 05:14:59;;;;;;;307.30;187.25;;;;;;;23.83;42.97;100024.53;5043259;28;20103;-64
2022/05/08 05:17:27;;;;;;;334.95;200.50;;;;;;;23.85;42.58;100034.16;5019615;28;20103;-65
2022/05/08 05:19:53;;;;;;;360.02;212.52;;;;;;;23.86;42.99;100027.41;5021934;28;20041;-64
2022/05/08 05:22:20;;;;;;;331.25;196.63;;;;;;;23.88;42.79;100035.44;5022877;28;20544;-64
2022/05/08 05:24:46;;;;;;;350.17;211.73;;;;;;;23.89;42.75;100035.09;5022506;28;20049;-64
2022/05/08 05:27:12;;;;;;;351.35;211.93;;;;;;;23.92;43.21;100027.94;5011641;28;20045;-65
2022/05/08 05:29:38;;;;;;;368.17;221.57;;;;;;;23.93;43.07;100024.81;5037440;28;20076;-64
2022/05/08 05:32:05;;;;;;;368.35;216.70;;;;;;;23.97;42.99;100015.69;5041496;28;20057;-63
2022/05/08 05:34:32;;;;;;;344.73;205.30;;;;;;;23.98;42.59;100014.53;5041776;28;20045;-64
2022/05/08 05:36:58;;;;;;;353.42;206.88;;;;;;;24.02;42.71;100012.63;5018384;28;20045;-64
2022/05/08 05:39:24;;;;;;;343.33;205.27;;;;;;;24.03;42.62;100022.66;5022650;28;20061;-66
2022/05/08 05:41:50;;;;;;;336.85;194.35;;;;;;;24.08;42.14;100025.19;5006156;28;20057;-61
2022/05/08 05:44:16;;;;;;;329.52;193.90;;;;;;;24.11;42.27;100023.63;5003873;28;20052;-60
2022/05/08 05:49:27;;;;;;;328.17;196.82;;;;;;;24.14;42.61;100004.19;5022231;28;20045;-60
2022/05/08 05:51:56;;;;;;;308.08;189.32;;;;;;;24.09;42.34;99987.72;5022751;28;20053;-61
2022/05/08 05:54:22;;;;;;;300.55;187.80;;;;;;;24.20;42.37;100002.75;5023407;28;20582;-65
2022/05/08 05:56:48;;;;;;;330.02;204.15;;;;;;;24.23;42.37;100003.19;5025472;28;20049;-64
2022/05/08 05:59:14;;;;;;;284.95;176.77;;;;;;;24.27;42.54;100002.06;5023111;28;20509;-64
2022/05/08 06:01:40;;;;;;;283.08;182.32;;;;;;;24.31;42.08;100004.97;5021995;28;20049;-64
2022/05/08 06:04:06;;;;;;;281.52;179.93;;;;;;;24.33;42.33;99999.81;5024355;28;20459;-61
2022/05/08 06:06:31;;;;;;;260.42;166.48;;;;;;;24.35;42.05;100012.25;5023108;28;20049;-65
2022/05/08 06:08:59;;;;;;;262.52;168.02;;;;;;;24.40;42.02;100002.78;5025063;28;20107;-65
2022/05/08 06:11:25;;;;;;;251.73;165.98;;;;;;;24.43;42.40;100004.84;5039050;28;20520;-65
2022/05/08 06:13:51;;;;;;;250.00;158.93;;;;;;;24.37;42.06;99981.19;5037422;28;20119;-66
2022/05/08 06:16:17;;;;;;;229.10;146.57;;;;;;;24.50;41.90;99998.63;5011055;28;20041;-65
2022/05/08 06:18:44;;;;;;;238.02;155.48;;;;;;;24.54;41.86;100001.50;5031427;28;20315;-64
2022/05/08 06:21:10;;;;;;;212.55;142.43;;;;;;;24.56;41.65;100005.53;5029089;28;20068;-64
2022/05/08 06:23:36;;;;;;;220.70;144.75;;;;;;;24.58;41.67;99999.59;5022583;28;20056;-64
2022/05/08 06:26:09;;;;;;;196.32;134.18;;;;;;;24.60;41.84;100000.03;5024737;28;20057;-65
2022/05/08 06:28:36;;;;;;;196.65;136.68;;;;;;;24.61;41.54;99996.06;5006980;28;20053;-61
2022/05/08 06:31:02;;;;;;;179.05;128.35;;;;;;;24.63;41.53;99990.91;5030772;28;20273;-60
2022/05/08 06:33:28;;;;;;;186.43;130.48;;;;;;;24.66;41.09;99992.16;5042811;28;20516;-60
2022/05/08 06:35:56;;;;;;;178.43;130.90;;;;;;;24.69;41.39;100002.59;5046059;28;20045;-61
2022/05/08 06:38:22;;;;;;;170.07;124.30;;;;;;;24.71;41.32;99995.47;5045997;28;20051;-60
2022/05/08 06:40:48;;;;;;;163.00;121.28;;;;;;;24.76;41.33;99991.63;5044931;28;20045;-60
2022/05/08 06:43:15;;;;;;;169.05;124.53;;;;;;;24.82;41.10;99992.13;5026707;28;20534;-61
2022/05/08 06:45:43;;;;;;;163.77;122.95;;;;;;;24.84;41.34;99979.41;5046600;28;20053;-60
2022/05/08 06:48:09;;;;;;;152.52;118.13;;;;;;;24.83;41.50;99982.56;5029886;28;20044;-59
2022/05/08 06:50:35;;;;;;;151.40;117.88;;;;;;;24.90;41.16;99991.09;5045436;28;20041;-63
2022/05/08 06:53:04;;;;;;;135.52;107.30;;;;;;;24.92;41.18;99975.59;5028862;28;20415;-66
2022/05/08 06:55:30;;;;;;;134.60;106.55;;;;;;;24.95;40.95;99973.22;5019653;28;20571;-60
2022/05/08 06:57:56;;;;;;;132.75;104.75;;;;;;;24.98;41.04;99972.47;5028921;28;20053;-60
2022/05/08 07:03:08;;;;;;;122.13;101.28;;;;;;;25.05;41.01;99976.22;5047251;28;20539;-66
2022/05/08 07:05:40;;;;;;;115.88;96.78;;;;;;;25.06;40.71;99963.06;5045509;28;20663;-62
2022/05/08 07:08:06;;;;;;;118.45;97.97;;;;;;;25.06;41.29;99955.47;5027843;28;20041;-61
2022/05/08 07:10:32;;;;;;;123.87;102.30;;;;;;;25.06;41.36;99963.06;5043979;28;20187;-60
2022/05/08 07:12:58;;;;;;;123.72;99.13;;;;;;;25.08;41.20;99957.91;5044370;28;20830;-60
2022/05/08 07:15:26;;;;;;;119.50;99.65;;;;;;;25.09;41.37;99962.31;5045352;28;20048;-59
2022/05/08 07:17:52;;;;;;;115.10;97.65;;;;;;;25.09;41.49;99965.13;5044351;28;20040;-59
2022/05/08 07:20:18;;;;;;;111.88;96.55;;;;;;;25.08;41.53;99966.28;5026862;28;20424;-61
2022/05/08 07:22:44;;;;;;;109.03;93.57;;;;;;;25.08;41.53;99965.47;5045907;28;20571;-61
2022/05/08 07:25:12;;;;;;;112.18;92.72;;;;;;;25.08;41.65;99957.91;5027872;28;20049;-60
2022/05/08 07:27:42;;;;;;;101.13;88.45;;;;;;;25.08;41.45;99960.69;5046102;28;20053;-63
2022/05/08 07:30:09;;;;;;;102.05;90.57;;;;;;;25.10;41.45;99971.50;5011223;28;20091;-64
2022/05/08 07:32:36;;;;;;;108.65;90.70;;;;;;;25.11;41.48;99962.75;5046156;28;20077;-63
2022/05/08 07:37:49;;;;;;;102.20;89.38;;;;;;;25.11;41.88;99973.94;5042211;28;20053;-64
2022/05/08 07:40:14;;;;;;;;;;;;;;;25.14;41.64;99966.81;4987224;28;20457;-65
2022/05/08 07:42:43;;;;;;;108.38;95.55;;;;;;;25.15;42.24;99969.22;5008079;28;19925;-65
2022/05/08 07:45:09;;;;;;;101.70;88.90;;;;;;;25.08;42.08;99934.72;5026716;28;20120;-65
2022/05/08 07:47:37;;;;;;;95.33;85.10;;;;;;;25.19;42.23;99952.50;5022594;28;20049;-65
2022/05/08 07:50:03;;;;;;;104.97;92.95;;;;;;;25.24;42.53;99952.19;5008567;28;20387;-64
2022/05/08 07:52:30;;;;;;;96.93;85.53;;;;;;;25.24;42.52;99941.00;5027046;28;20144;-65
2022/05/08 07:54:56;;;;;;;102.80;91.53;;;;;;;25.36;42.54;99956.78;5008045;28;20053;-65
2022/05/08 07:57:22;;;;;;;98.55;87.30;;;;;;;25.42;42.47;99948.91;5006743;28;20045;-66
2022/05/08 07:59:49;;;;;;;115.25;96.40;;;;;;;25.44;42.53;99941.75;5008290;28;20052;-64
2022/05/08 08:02:16;;;;;;;100.75;87.97;;;;;;;25.48;42.69;99953.84;5027758;28;20055;-65
2022/05/08 08:04:44;;;;;;;98.73;86.83;;;;;;;25.51;42.31;99943.91;5023693;28;20059;-64
2022/05/08 08:07:10;;;;;;;94.70;82.53;;;;;;;25.53;41.91;99935.94;5045822;28;20545;-66
2022/05/08 08:09:36;;;;;;;92.45;82.57;;;;;;;25.60;41.74;99932.47;5025326;28;20560;-66
2022/05/08 08:12:02;;;;;;;91.85;81.93;;;;;;;25.68;41.51;99933.38;5012394;28;20212;-64
2022/05/08 08:14:29;;;;;;;91.47;80.70;;;;;;;25.74;40.95;99931.88;5014782;28;20045;-60
2022/05/08 08:16:55;;;;;;;93.32;80.72;;;;;;;25.79;40.59;99927.94;5039577;28;20059;-64
2022/05/08 08:19:21;;;;;;;92.10;80.88;;;;;;;25.66;40.28;99907.75;5032555;28;20056;-65
2022/05/08 08:21:52;;;;;;;90.93;78.80;;;;;;;25.80;40.23;99944.38;5020197;28;20199;-60
2022/05/08 08:24:18;;;;;;;85.50;74.40;;;;;;;25.81;40.18;99909.59;5025390;28;20049;-65
2022/05/08 08:26:44;;;;;;;92.63;80.82;;;;;;;25.81;40.34;99920.81;5040741;28;20224;-60
2022/05/08 08:29:10;;;;;;;94.20;81.28;;;;;;;25.82;40.78;99916.00;5045010;28;20542;-59
2022/05/08 08:31:35;;;;;;;93.18;79.60;;;;;;;25.80;40.63;99932.38;5026636;28;20055;-62
2022/05/08 08:34:02;;;;;;;95.32;82.78;;;;;;;25.75;40.60;99922.28;5027353;28;20063;-60
2022/05/08 08:36:28;;;;;;;98.60;84.45;;;;;;;25.73;40.56;99924.66;5040389;28;20567;-61
2022/05/08 08:38:55;;;;;;;90.25;79.28;;;;;;;25.69;40.71;99898.59;5034626;28;20095;-60
2022/05/08 08:41:27;;;;;;;105.05;85.85;;;;;;;25.65;40.94;99906.16;5015586;28;20140;-60
2022/05/08 08:49:34;;;;;;;105.82;87.82;;;;;;;25.61;41.08;99929.28;5043049;28;20436;-60
2022/05/08 08:52:00;;;;;;;100.97;84.38;;;;;;;25.63;40.84;99912.13;5040218;28;20056;-61
2022/05/08 08:54:27;;;;;;;100.97;86.35;;;;;;;25.65;40.78;99925.75;4996551;28;20529;-62
2022/05/08 08:56:53;;;;;;;108.03;91.35;;;;;;;25.67;40.56;99917.78;5023269;28;20045;-60
2022/05/08 08:59:22;;;;;;;110.25;90.88;;;;;;;25.73;40.41;99919.06;5025798;28;20153;-61
2022/05/08 09:01:48;;;;;;;106.35;89.93;;;;;;;25.76;40.42;99904.34;5037414;28;20565;-61
2022/05/08 09:04:15;;;;;;;99.90;83.00;;;;;;;25.82;40.11;99914.03;5038571;28;20511;-62
2022/05/08 09:06:42;;;;;;;105.40;84.97;;;;;;;25.89;39.92;99904.91;5024797;28;20045;-64
2022/05/08 09:09:22;;;;;;;107.32;88.68;;;;;;;25.93;39.86;99902.19;5027245;28;20053;-64
2022/05/08 09:11:49;;;;;;;112.68;90.90;;;;;;;25.96;39.93;99901.41;5027688;28;20045;-64
2022/05/08 09:14:27;;;;;;;113.75;93.43;;;;;;;25.96;39.93;99910.63;5031177;28;20049;-63
2022/05/08 09:16:54;;;;;;;119.95;93.10;;;;;;;25.86;39.83;99889.66;5034212;28;20041;-64
2022/05/08 09:19:29;;;;;;;113.90;90.80;;;;;;;25.97;39.83;99900.22;5035449;28;20052;-64
2022/05/08 09:21:58;;;;;;;117.05;94.43;;;;;;;25.95;39.71;99899.81;5032274;28;20057;-64
2022/05/08 09:24:24;;;;;;;121.10;92.70;;;;;;;25.97;40.06;99887.03;5021617;28;20049;-65
2022/05/08 09:27:08;;;;;;;122.22;98.93;;;;;;;26.00;40.00;99883.50;5023433;28;20530;-65
2022/05/08 09:29:34;;;;;;;115.75;91.93;;;;;;;26.03;39.89;99884.69;5027248;28;20053;-64
2022/05/08 09:32:00;;;;;;;125.30;96.55;;;;;;;26.04;39.90;99900.31;5040604;28;20048;-65
2022/05/08 09:34:26;;;;;;;142.80;102.00;;;;;;;26.05;39.94;99894.34;5006753;28;20049;-64
2022/05/08 09:37:05;;;;;;;158.97;104.47;;;;;;;26.06;40.09;99895.16;5038621;28;20057;-65
2022/05/08 09:39:31;;;;;;;146.85;104.60;;;;;;;26.08;39.93;99884.41;5041880;28;20033;-62
2022/05/08 09:41:59;;;;;;;186.02;110.25;;;;;;;26.10;40.22;99879.22;5028276;28;20174;-62
2022/05/08 09:44:25;;;;;;;192.90;113.38;;;;;;;26.17;40.12;99870.09;5038173;28;20049;-62
2022/05/08 09:46:51;;;;;;;205.17;111.63;;;;;;;26.21;40.34;99872.97;5020868;28;20448;-65
2022/05/08 09:49:19;;;;;;;195.50;111.28;;;;;;;26.28;40.03;99882.25;5040798;28;20069;-64
2022/05/08 09:51:47;;;;;;;201.43;116.10;;;;;;;26.36;39.94;99859.97;5041062;28;20045;-64
2022/05/08 09:54:14;;;;;;;203.52;118.63;;;;;;;26.45;40.23;99864.06;5032532;28;20052;-63
2022/05/08 09:56:42;;;;;;;185.82;123.07;;;;;;;26.53;40.08;99855.72;5005691;28;20058;-64
2022/05/08 09:59:12;;;;;;;197.82;121.18;;;;;;;26.59;39.62;99841.00;5008701;28;20103;-64
2022/05/08 10:01:38;;;;;;;177.15;117.88;;;;;;;26.72;39.39;99858.38;5039250;28;20049;-64
2022/05/08 10:04:04;;;;;;;168.68;115.90;;;;;;;26.89;39.34;99892.63;5040555;28;20045;-64
2022/05/08 10:06:33;;;;;;;207.65;116.65;;;;;;;27.01;39.08;99877.50;5033003;28;20053;-65
2022/05/08 10:15:19;;;;;;;217.30;113.45;;;;;;;27.39;38.00;99847.38;5059792;23;20131;-64
2022/05/08 10:17:45;;;;;;;232.32;129.10;;;;;;;27.55;38.07;99835.09;4974504;28;20334;-64
2022/05/08 10:20:11;;;;;;;221.88;127.28;;;;;;;27.74;37.87;99822.78;5003941;28;20076;-65
2022/05/08 10:22:48;;;;;;;213.07;128.53;;;;;;;27.93;37.47;99818.88;5005543;28;20377;-66
2022/05/08 10:25:18;;;;;;;230.48;128.75;;;;;;;28.14;37.44;99815.38;5002796;28;20050;-64
2022/05/08 10:28:06;;;;;;;209.07;128.55;;;;;;;28.38;36.74;99818.69;4997603;28;20057;-65
2022/05/08 10:30:33;;;;;;;215.75;129.23;;;;;;;28.61;36.55;99820.38;5008846;28;20496;-66
2022/05/08 10:33:01;;;;;;;223.18;131.15;;;;;;;28.83;36.31;99789.47;5002722;28;20428;-66
2022/05/08 10:35:30;;;;;;;208.85;122.78;;;;;;;29.02;35.35;99803.16;5006347;28;20046;-65
2022/05/08 10:38:21;;;;;;;227.63;131.88;;;;;;;29.21;35.40;99781.47;5004954;28;20111;-64
2022/05/08 10:40:49;;;;;;;211.88;129.48;;;;;;;29.41;34.78;99790.25;4999811;28;20523;-65
2022/05/08 10:43:28;;;;;;;210.40;131.38;;;;;;;29.58;34.25;99814.00;5004361;28;20432;-64
2022/05/08 10:46:16;;;;;;;226.48;138.65;;;;;;;29.77;34.62;99791.44;5009874;28;20423;-64
2022/05/08 10:48:43;;;;;;;190.10;117.07;;;;;;;29.78;33.90;99798.66;5006919;28;20057;-65
2022/05/08 10:51:09;;;;;;;;;;;;;;;29.78;33.87;99798.66;5025066;28;20091;-64
2022/05/08 10:53:36;;;;;;;220.57;123.63;;;;;;;29.87;33.42;99773.66;5024731;28;19928;-65
2022/05/08 10:56:04;;;;;;;;;;;;;;;30.01;33.37;99772.81;5040612;28;20069;-65
2022/05/08 10:58:30;;;;;;;216.32;126.60;;;;;;;30.17;32.83;99754.66;5021630;28;19932;-65
2022/05/08 11:00:59;;;;;;;216.95;124.60;;;;;;;30.25;32.52;99792.88;5025725;28;20129;-64
2022/05/08 11:03:26;;;;;;;216.48;119.97;;;;;;;30.37;32.26;99783.94;5017832;28;20212;-66
2022/05/08 11:05:54;;;;;;;212.77;123.43;;;;;;;30.45;32.21;99752.91;5017822;28;20049;-65
2022/05/08 11:08:25;;;;;;;221.77;126.70;;;;;;;30.39;32.19;99769.44;5022248;28;20059;-65
2022/05/08 11:11:03;;;;;;;206.95;124.78;;;;;;;30.24;32.08;99772.34;5024922;28;20179;-64
2022/05/08 11:13:44;;;;;;;216.35;122.53;;;;;;;30.07;32.06;99770.41;5022949;28;20104;-66
2022/05/08 11:16:13;;;;;;;215.88;123.10;;;;;;;29.95;32.60;99757.53;5022305;28;20045;-64
2022/05/08 11:18:40;;;;;;;205.68;124.78;;;;;;;29.83;32.63;99770.88;5023421;28;20076;-65
2022/05/08 11:21:08;;;;;;;203.98;121.40;;;;;;;29.71;32.69;99743.94;5024932;28;20063;-65
2022/05/08 11:23:36;;;;;;;200.25;124.40;;;;;;;29.62;33.22;99746.41;5023477;28;20069;-66
2022/05/08 11:26:05;;;;;;;210.68;124.90;;;;;;;29.57;33.41;99744.00;5025340;28;20046;-65
2022/05/08 11:28:33;;;;;;;212.77;128.70;;;;;;;29.57;33.32;99742.00;5025362;28;20088;-65
2022/05/08 11:30:59;;;;;;;223.63;130.20;;;;;;;29.56;33.57;99756.47;5028075;28;20057;-66
2022/05/08 11:36:23;;;;;;;189.63;121.60;;;;;;;29.30;33.49;99741.63;5025279;28;20585;-65
2022/05/08 11:38:55;;;;;;;210.45;128.07;;;;;;;29.19;33.99;99733.22;5023427;28;20038;-65